To NAV CANADA Home Page Login to a new session Search on AWWS site Feedback and Comments Disclaimer Vers la page française équivalente Tips FAQ What's new on the site To the Forecasts and Observations / NOTAM section To "File a Flight Plan" website Publications and other links Update of the User's profile FIC Telephone Numbers My Weather Data Folder Route Weather Data Regional Weather Data Local Weather Data To the Forecasts and Observations / NOTAM section
Request Generated 11/26/2015 at 03:15:42 UTC . Weather information available at that time is displayed.



METAR CYOW 260300Z 10006KT 15SM OVC100 M01/M02 A3057 RMK AC8 SLP357=
METAR CYOW 260200Z 09007KT 15SM OVC120 M00/M02 A3058 RMK AC8 SLP363=
METAR CYOW 260100Z 09008KT 15SM OVC130 M01/M02 A3059 RMK AC8 SLP367=

TAF CYOW 260238Z 2603/2624 09008KT P6SM BKN120
BECMG 2603/2605 15008KT WS005/19025KT
FM261200 18008KT P6SM BKN120
FM261500 20015G25KT P6SM FEW030 BKN100
FM262000 21015G25KT P6SM -SHRA BKN030 OVC080
BECMG 2621/2623 21010KT
Your time UTC time
Weather data provided by Environment Canada and NAV CANADA